sensor_id;sensor_type;location;lat;lon;timestamp;temperature;humidity
45096;DHT22;30858;51.108;8.068;2022-10-31T00:00:50;8.70;99.90
45096;DHT22;30858;51.108;8.068;2022-10-31T00:03:16;8.70;99.90
45096;DHT22;30858;51.108;8.068;2022-10-31T00:05:49;8.70;99.90
45096;DHT22;30858;51.108;8.068;2022-10-31T00:08:16;8.70;99.90
45096;DHT22;30858;51.108;8.068;2022-10-31T00:10:42;8.70;99.90
45096;DHT22;30858;51.108;8.068;2022-10-31T00:13:09;8.70;99.90
45096;DHT22;30858;51.108;8.068;2022-10-31T00:15:35;8.70;99.90
45096;DHT22;30858;51.108;8.068;2022-10-31T00:18:02;8.60;99.90
45096;DHT22;30858;51.108;8.068;2022-10-31T00:20:28;8.60;99.90
45096;DHT22;30858;51.108;8.068;2022-10-31T00:22:53;8.60;99.90
45096;DHT22;30858;51.108;8.068;2022-10-31T00:25:22;8.50;99.90
45096;DHT22;30858;51.108;8.068;2022-10-31T00:27:47;8.50;99.90
45096;DHT22;30858;51.108;8.068;2022-10-31T00:30:13;8.50;99.90
45096;DHT22;30858;51.108;8.068;2022-10-31T00:32:38;8.40;99.90
45096;DHT22;30858;51.108;8.068;2022-10-31T00:35:04;8.40;99.90
45096;DHT22;30858;51.108;8.068;2022-10-31T00:37:30;8.30;99.90
45096;DHT22;30858;51.108;8.068;2022-10-31T00:39:55;8.30;99.90
45096;DHT22;30858;51.108;8.068;2022-10-31T00:42:21;8.30;99.90
45096;DHT22;30858;51.108;8.068;2022-10-31T00:44:46;8.30;99.90
45096;DHT22;30858;51.108;8.068;2022-10-31T00:47:12;8.20;99.90
45096;DHT22;30858;51.108;8.068;2022-10-31T00:49:37;8.20;99.90
45096;DHT22;30858;51.108;8.068;2022-10-31T00:52:03;8.10;99.90
45096;DHT22;30858;51.108;8.068;2022-10-31T00:54:28;8.10;99.90
45096;DHT22;30858;51.108;8.068;2022-10-31T00:56:56;8.20;99.90
45096;DHT22;30858;51.108;8.068;2022-10-31T00:59:22;8.10;99.90
45096;DHT22;30858;51.108;8.068;2022-10-31T01:01:47;8.10;99.90
45096;DHT22;30858;51.108;8.068;2022-10-31T01:04:13;8.10;99.90
45096;DHT22;30858;51.108;8.068;2022-10-31T01:06:38;8.10;99.90
45096;DHT22;30858;51.108;8.068;2022-10-31T01:09:04;8.10;99.90
45096;DHT22;30858;51.108;8.068;2022-10-31T01:11:29;8.10;99.90
45096;DHT22;30858;51.108;8.068;2022-10-31T01:13:55;8.10;99.90
45096;DHT22;30858;51.108;8.068;2022-10-31T01:16:23;8.00;99.90
45096;DHT22;30858;51.108;8.068;2022-10-31T01:18:48;8.00;99.90
45096;DHT22;30858;51.108;8.068;2022-10-31T01:21:17;8.00;99.90
45096;DHT22;30858;51.108;8.068;2022-10-31T01:23:43;8.00;99.90
45096;DHT22;30858;51.108;8.068;2022-10-31T01:26:17;8.00;99.90
45096;DHT22;30858;51.108;8.068;2022-10-31T01:28:46;7.90;99.90
45096;DHT22;30858;51.108;8.068;2022-10-31T01:31:11;7.90;99.90
45096;DHT22;30858;51.108;8.068;2022-10-31T01:33:37;7.90;99.90
45096;DHT22;30858;51.108;8.068;2022-10-31T01:36:24;7.90;99.90
45096;DHT22;30858;51.108;8.068;2022-10-31T01:38:52;7.90;99.90
45096;DHT22;30858;51.108;8.068;2022-10-31T01:41:21;7.90;99.90
45096;DHT22;30858;51.108;8.068;2022-10-31T01:46:23;7.90;99.90
45096;DHT22;30858;51.108;8.068;2022-10-31T01:48:50;7.90;99.90
45096;DHT22;30858;51.108;8.068;2022-10-31T01:51:17;7.80;99.90
45096;DHT22;30858;51.108;8.068;2022-10-31T01:53:45;7.80;99.90
45096;DHT22;30858;51.108;8.068;2022-10-31T01:56:13;7.90;99.90
45096;DHT22;30858;51.108;8.068;2022-10-31T01:58:39;7.80;99.90
45096;DHT22;30858;51.108;8.068;2022-10-31T02:01:05;7.80;99.90
45096;DHT22;30858;51.108;8.068;2022-10-31T02:03:31;7.80;99.90
45096;DHT22;30858;51.108;8.068;2022-10-31T02:05:57;7.80;99.90
45096;DHT22;30858;51.108;8.068;2022-10-31T02:08:27;7.80;99.90
45096;DHT22;30858;51.108;8.068;2022-10-31T02:10:54;7.80;99.90
45096;DHT22;30858;51.108;8.068;2022-10-31T02:13:20;7.80;99.90
45096;DHT22;30858;51.108;8.068;2022-10-31T02:15:51;7.80;99.90
45096;DHT22;30858;51.108;8.068;2022-10-31T02:18:17;7.70;99.90
45096;DHT22;30858;51.108;8.068;2022-10-31T02:29:51;7.70;99.90
45096;DHT22;30858;51.108;8.068;2022-10-31T02:35:07;7.70;99.90
45096;DHT22;30858;51.108;8.068;2022-10-31T02:37:38;7.70;99.90
45096;DHT22;30858;51.108;8.068;2022-10-31T02:40:25;7.60;99.90
45096;DHT22;30858;51.108;8.068;2022-10-31T02:45:44;7.70;99.90
45096;DHT22;30858;51.108;8.068;2022-10-31T02:48:15;7.60;99.90
45096;DHT22;30858;51.108;8.068;2022-10-31T02:50:52;7.60;99.90
45096;DHT22;30858;51.108;8.068;2022-10-31T02:53:20;7.60;99.90
45096;DHT22;30858;51.108;8.068;2022-10-31T02:56:04;7.60;99.90
45096;DHT22;30858;51.108;8.068;2022-10-31T02:58:36;7.60;99.90
45096;DHT22;30858;51.108;8.068;2022-10-31T03:09:36;7.60;99.90
45096;DHT22;30858;51.108;8.068;2022-10-31T03:12:35;7.60;99.90
45096;DHT22;30858;51.108;8.068;2022-10-31T03:15:11;7.50;99.90
45096;DHT22;30858;51.108;8.068;2022-10-31T03:20:33;7.50;99.90
45096;DHT22;30858;51.108;8.068;2022-10-31T03:23:01;7.50;99.90
45096;DHT22;30858;51.108;8.068;2022-10-31T03:25:31;7.40;99.90
45096;DHT22;30858;51.108;8.068;2022-10-31T03:28:01;7.40;99.90
45096;DHT22;30858;51.108;8.068;2022-10-31T03:30:28;7.40;99.90
45096;DHT22;30858;51.108;8.068;2022-10-31T03:32:56;7.40;99.90
45096;DHT22;30858;51.108;8.068;2022-10-31T03:35:25;7.40;99.90
45096;DHT22;30858;51.108;8.068;2022-10-31T03:37:53;7.40;99.90
45096;DHT22;30858;51.108;8.068;2022-10-31T03:40:21;7.30;99.90
45096;DHT22;30858;51.108;8.068;2022-10-31T03:42:54;7.30;99.90
45096;DHT22;30858;51.108;8.068;2022-10-31T03:45:29;7.20;99.90
45096;DHT22;30858;51.108;8.068;2022-10-31T03:47:56;7.20;99.90
45096;DHT22;30858;51.108;8.068;2022-10-31T03:50:25;7.20;99.90
45096;DHT22;30858;51.108;8.068;2022-10-31T03:52:55;7.10;99.90
45096;DHT22;30858;51.108;8.068;2022-10-31T03:58:05;7.10;99.90
45096;DHT22;30858;51.108;8.068;2022-10-31T04:00:33;7.10;99.90
45096;DHT22;30858;51.108;8.068;2022-10-31T04:03:03;7.10;99.90
45096;DHT22;30858;51.108;8.068;2022-10-31T04:05:29;7.10;99.90
45096;DHT22;30858;51.108;8.068;2022-10-31T04:07:57;7.10;99.90
45096;DHT22;30858;51.108;8.068;2022-10-31T04:10:26;7.10;99.90
45096;DHT22;30858;51.108;8.068;2022-10-31T04:13:01;7.00;99.90
45096;DHT22;30858;51.108;8.068;2022-10-31T04:15:28;7.10;99.90
45096;DHT22;30858;51.108;8.068;2022-10-31T04:17:56;7.10;99.90
45096;DHT22;30858;51.108;8.068;2022-10-31T04:20:33;7.10;99.90
45096;DHT22;30858;51.108;8.068;2022-10-31T04:23:00;7.10;99.90
45096;DHT22;30858;51.108;8.068;2022-10-31T04:25:26;7.10;99.90
45096;DHT22;30858;51.108;8.068;2022-10-31T04:27:51;7.10;99.90
45096;DHT22;30858;51.108;8.068;2022-10-31T04:30:17;7.00;99.90
45096;DHT22;30858;51.108;8.068;2022-10-31T04:32:42;7.00;99.90
45096;DHT22;30858;51.108;8.068;2022-10-31T04:35:08;7.00;99.90
45096;DHT22;30858;51.108;8.068;2022-10-31T04:37:33;7.00;99.90
45096;DHT22;30858;51.108;8.068;2022-10-31T04:39:59;7.10;99.90
45096;DHT22;30858;51.108;8.068;2022-10-31T04:42:24;7.00;99.90
45096;DHT22;30858;51.108;8.068;2022-10-31T04:44:50;7.00;99.90
45096;DHT22;30858;51.108;8.068;2022-10-31T04:47:15;7.00;99.90
45096;DHT22;30858;51.108;8.068;2022-10-31T04:49:41;7.00;99.90
45096;DHT22;30858;51.108;8.068;2022-10-31T04:52:06;7.00;99.90
45096;DHT22;30858;51.108;8.068;2022-10-31T04:54:33;7.00;99.90
45096;DHT22;30858;51.108;8.068;2022-10-31T04:56:58;6.90;99.90
45096;DHT22;30858;51.108;8.068;2022-10-31T04:59:24;6.90;99.90
45096;DHT22;30858;51.108;8.068;2022-10-31T05:01:49;6.90;99.90
45096;DHT22;30858;51.108;8.068;2022-10-31T05:04:15;6.80;99.90
45096;DHT22;30858;51.108;8.068;2022-10-31T05:06:40;6.80;99.90
45096;DHT22;30858;51.108;8.068;2022-10-31T05:09:06;6.80;99.90
45096;DHT22;30858;51.108;8.068;2022-10-31T05:11:32;6.80;99.90
45096;DHT22;30858;51.108;8.068;2022-10-31T05:13:57;6.80;99.90
45096;DHT22;30858;51.108;8.068;2022-10-31T05:16:23;6.80;99.90
45096;DHT22;30858;51.108;8.068;2022-10-31T05:18:48;6.80;99.90
45096;DHT22;30858;51.108;8.068;2022-10-31T05:21:14;6.70;99.90
45096;DHT22;30858;51.108;8.068;2022-10-31T05:23:39;6.70;99.90
45096;DHT22;30858;51.108;8.068;2022-10-31T05:26:05;6.70;99.90
45096;DHT22;30858;51.108;8.068;2022-10-31T05:28:30;6.70;99.90
45096;DHT22;30858;51.108;8.068;2022-10-31T05:30:56;6.90;99.90
45096;DHT22;30858;51.108;8.068;2022-10-31T05:33:21;7.00;99.90
45096;DHT22;30858;51.108;8.068;2022-10-31T05:35:47;7.10;99.90
45096;DHT22;30858;51.108;8.068;2022-10-31T05:38:13;7.10;99.90
45096;DHT22;30858;51.108;8.068;2022-10-31T05:40:38;7.00;99.90
45096;DHT22;30858;51.108;8.068;2022-10-31T05:43:03;7.00;99.90
45096;DHT22;30858;51.108;8.068;2022-10-31T05:45:29;7.00;99.90
45096;DHT22;30858;51.108;8.068;2022-10-31T05:47:59;6.90;99.90
45096;DHT22;30858;51.108;8.068;2022-10-31T05:50:26;6.80;99.90
45096;DHT22;30858;51.108;8.068;2022-10-31T05:53:04;6.70;99.90
45096;DHT22;30858;51.108;8.068;2022-10-31T05:55:30;6.70;99.90
45096;DHT22;30858;51.108;8.068;2022-10-31T05:57:56;6.60;99.90
45096;DHT22;30858;51.108;8.068;2022-10-31T06:00:23;6.60;99.90
45096;DHT22;30858;51.108;8.068;2022-10-31T06:02:49;6.50;99.90
45096;DHT22;30858;51.108;8.068;2022-10-31T06:05:14;6.60;99.90
45096;DHT22;30858;51.108;8.068;2022-10-31T06:07:41;6.60;99.90
45096;DHT22;30858;51.108;8.068;2022-10-31T06:10:08;6.60;99.90
45096;DHT22;30858;51.108;8.068;2022-10-31T06:12:34;6.60;99.90
45096;DHT22;30858;51.108;8.068;2022-10-31T06:15:07;6.60;99.90
45096;DHT22;30858;51.108;8.068;2022-10-31T06:17:34;6.60;99.90
45096;DHT22;30858;51.108;8.068;2022-10-31T06:20:00;6.70;99.90
45096;DHT22;30858;51.108;8.068;2022-10-31T06:22:26;6.60;99.90
45096;DHT22;30858;51.108;8.068;2022-10-31T06:24:51;6.50;99.90
45096;DHT22;30858;51.108;8.068;2022-10-31T06:27:18;6.60;99.90
45096;DHT22;30858;51.108;8.068;2022-10-31T06:29:43;6.60;99.90
45096;DHT22;30858;51.108;8.068;2022-10-31T06:32:11;6.60;99.90
45096;DHT22;30858;51.108;8.068;2022-10-31T06:34:37;6.60;99.90
45096;DHT22;30858;51.108;8.068;2022-10-31T06:37:02;6.60;99.90
45096;DHT22;30858;51.108;8.068;2022-10-31T06:39:28;6.60;99.90
45096;DHT22;30858;51.108;8.068;2022-10-31T06:41:53;6.70;99.90
45096;DHT22;30858;51.108;8.068;2022-10-31T06:44:19;6.70;99.90
45096;DHT22;30858;51.108;8.068;2022-10-31T06:46:46;6.70;99.90
45096;DHT22;30858;51.108;8.068;2022-10-31T06:49:13;6.70;99.90
45096;DHT22;30858;51.108;8.068;2022-10-31T06:51:38;6.90;99.90
45096;DHT22;30858;51.108;8.068;2022-10-31T06:54:04;7.10;99.90
45096;DHT22;30858;51.108;8.068;2022-10-31T06:56:29;7.10;99.90
45096;DHT22;30858;51.108;8.068;2022-10-31T06:58:55;7.00;99.90
45096;DHT22;30858;51.108;8.068;2022-10-31T07:01:20;7.00;99.90
45096;DHT22;30858;51.108;8.068;2022-10-31T07:03:46;7.00;99.90
45096;DHT22;30858;51.108;8.068;2022-10-31T07:06:11;7.10;99.90
45096;DHT22;30858;51.108;8.068;2022-10-31T07:08:37;7.10;99.90
45096;DHT22;30858;51.108;8.068;2022-10-31T07:11:02;7.10;99.90
45096;DHT22;30858;51.108;8.068;2022-10-31T07:13:28;7.10;99.90
45096;DHT22;30858;51.108;8.068;2022-10-31T07:15:58;7.10;99.90
45096;DHT22;30858;51.108;8.068;2022-10-31T07:18:24;7.20;99.90
45096;DHT22;30858;51.108;8.068;2022-10-31T07:20:51;7.20;99.90
45096;DHT22;30858;51.108;8.068;2022-10-31T07:23:16;7.30;99.90
45096;DHT22;30858;51.108;8.068;2022-10-31T07:25:42;7.40;99.90
45096;DHT22;30858;51.108;8.068;2022-10-31T07:28:08;7.40;99.90
45096;DHT22;30858;51.108;8.068;2022-10-31T07:30:33;7.50;99.90
45096;DHT22;30858;51.108;8.068;2022-10-31T07:32:59;7.60;99.90
45096;DHT22;30858;51.108;8.068;2022-10-31T07:35:26;7.70;99.90
45096;DHT22;30858;51.108;8.068;2022-10-31T07:37:53;7.70;99.90
45096;DHT22;30858;51.108;8.068;2022-10-31T07:40:19;7.90;99.90
45096;DHT22;30858;51.108;8.068;2022-10-31T07:42:47;8.00;99.90
45096;DHT22;30858;51.108;8.068;2022-10-31T07:45:15;8.20;99.90
45096;DHT22;30858;51.108;8.068;2022-10-31T07:47:51;8.40;99.90
45096;DHT22;30858;51.108;8.068;2022-10-31T07:50:22;8.50;99.90
45096;DHT22;30858;51.108;8.068;2022-10-31T07:53:01;8.50;99.90
45096;DHT22;30858;51.108;8.068;2022-10-31T07:55:27;8.60;99.90
45096;DHT22;30858;51.108;8.068;2022-10-31T07:57:59;8.80;99.90
45096;DHT22;30858;51.108;8.068;2022-10-31T08:00:26;9.20;99.90
45096;DHT22;30858;51.108;8.068;2022-10-31T08:02:59;9.60;99.90
45096;DHT22;30858;51.108;8.068;2022-10-31T08:05:25;9.90;99.90
45096;DHT22;30858;51.108;8.068;2022-10-31T08:07:51;10.00;99.90
45096;DHT22;30858;51.108;8.068;2022-10-31T08:10:16;9.80;99.90
45096;DHT22;30858;51.108;8.068;2022-10-31T08:12:42;9.90;99.90
45096;DHT22;30858;51.108;8.068;2022-10-31T08:15:08;9.70;99.90
45096;DHT22;30858;51.108;8.068;2022-10-31T08:17:37;10.00;99.90
45096;DHT22;30858;51.108;8.068;2022-10-31T08:20:06;10.20;99.90
45096;DHT22;30858;51.108;8.068;2022-10-31T08:22:32;10.30;99.90
45096;DHT22;30858;51.108;8.068;2022-10-31T08:24:57;10.50;99.90
45096;DHT22;30858;51.108;8.068;2022-10-31T08:27:23;10.60;99.90
45096;DHT22;30858;51.108;8.068;2022-10-31T08:29:49;10.80;99.90
45096;DHT22;30858;51.108;8.068;2022-10-31T08:32:14;10.80;99.90
45096;DHT22;30858;51.108;8.068;2022-10-31T08:34:41;10.90;99.90
45096;DHT22;30858;51.108;8.068;2022-10-31T08:37:06;10.80;99.90
45096;DHT22;30858;51.108;8.068;2022-10-31T08:39:32;10.90;99.90
45096;DHT22;30858;51.108;8.068;2022-10-31T08:41:57;10.80;99.90
45096;DHT22;30858;51.108;8.068;2022-10-31T08:44:23;10.90;99.90
45096;DHT22;30858;51.108;8.068;2022-10-31T08:46:48;10.90;99.90
45096;DHT22;30858;51.108;8.068;2022-10-31T08:49:14;11.00;99.90
45096;DHT22;30858;51.108;8.068;2022-10-31T08:51:39;11.10;99.90
45096;DHT22;30858;51.108;8.068;2022-10-31T08:54:05;11.30;99.90
45096;DHT22;30858;51.108;8.068;2022-10-31T08:56:30;11.50;99.90
45096;DHT22;30858;51.108;8.068;2022-10-31T08:58:56;11.70;99.90
45096;DHT22;30858;51.108;8.068;2022-10-31T09:01:22;12.00;99.90
45096;DHT22;30858;51.108;8.068;2022-10-31T09:03:47;12.10;99.90
45096;DHT22;30858;51.108;8.068;2022-10-31T09:06:13;12.10;99.90
45096;DHT22;30858;51.108;8.068;2022-10-31T09:08:38;12.20;99.90
45096;DHT22;30858;51.108;8.068;2022-10-31T09:11:04;12.40;99.90
45096;DHT22;30858;51.108;8.068;2022-10-31T09:13:31;12.50;99.90
45096;DHT22;30858;51.108;8.068;2022-10-31T09:15:57;12.70;99.90
45096;DHT22;30858;51.108;8.068;2022-10-31T09:18:25;12.90;99.90
45096;DHT22;30858;51.108;8.068;2022-10-31T09:20:53;12.90;99.90
45096;DHT22;30858;51.108;8.068;2022-10-31T09:23:20;12.90;99.90
45096;DHT22;30858;51.108;8.068;2022-10-31T09:25:48;13.10;99.90
45096;DHT22;30858;51.108;8.068;2022-10-31T09:28:16;13.20;99.90
45096;DHT22;30858;51.108;8.068;2022-10-31T09:30:42;13.30;99.90
45096;DHT22;30858;51.108;8.068;2022-10-31T09:33:10;13.50;99.90
45096;DHT22;30858;51.108;8.068;2022-10-31T09:35:36;13.70;99.90
45096;DHT22;30858;51.108;8.068;2022-10-31T09:38:17;14.00;99.90
45096;DHT22;30858;51.108;8.068;2022-10-31T09:51:32;14.90;99.90
45096;DHT22;30858;51.108;8.068;2022-10-31T09:54:06;15.00;99.90
45096;DHT22;30858;51.108;8.068;2022-10-31T09:56:34;15.30;99.90
45096;DHT22;30858;51.108;8.068;2022-10-31T09:59:02;15.70;99.90
45096;DHT22;30858;51.108;8.068;2022-10-31T10:04:40;15.70;99.90
45096;DHT22;30858;51.108;8.068;2022-10-31T10:07:24;16.10;99.90
45096;DHT22;30858;51.108;8.068;2022-10-31T10:09:52;16.30;99.90
45096;DHT22;30858;51.108;8.068;2022-10-31T10:12:44;16.40;99.90
45096;DHT22;30858;51.108;8.068;2022-10-31T10:18:29;16.80;99.90
45096;DHT22;30858;51.108;8.068;2022-10-31T10:26:29;17.80;99.90
45096;DHT22;30858;51.108;8.068;2022-10-31T10:29:00;18.10;99.90
45096;DHT22;30858;51.108;8.068;2022-10-31T10:31:35;18.40;99.90
45096;DHT22;30858;51.108;8.068;2022-10-31T10:34:13;18.70;99.90
45096;DHT22;30858;51.108;8.068;2022-10-31T10:36:45;19.20;99.90
45096;DHT22;30858;51.108;8.068;2022-10-31T10:39:17;19.70;99.90
45096;DHT22;30858;51.108;8.068;2022-10-31T10:41:48;20.10;99.90
45096;DHT22;30858;51.108;8.068;2022-10-31T10:44:33;20.30;99.90
45096;DHT22;30858;51.108;8.068;2022-10-31T10:47:17;20.50;99.90
45096;DHT22;30858;51.108;8.068;2022-10-31T10:50:10;20.60;99.90
45096;DHT22;30858;51.108;8.068;2022-10-31T10:53:19;20.80;99.90
45096;DHT22;30858;51.108;8.068;2022-10-31T10:56:09;21.00;99.90
45096;DHT22;30858;51.108;8.068;2022-10-31T10:58:38;20.80;99.90
45096;DHT22;30858;51.108;8.068;2022-10-31T11:01:12;20.20;99.90
45096;DHT22;30858;51.108;8.068;2022-10-31T11:03:38;19.50;99.90
45096;DHT22;30858;51.108;8.068;2022-10-31T11:06:04;19.60;99.90
45096;DHT22;30858;51.108;8.068;2022-10-31T11:08:35;19.70;99.90
45096;DHT22;30858;51.108;8.068;2022-10-31T11:11:23;19.90;99.90
45096;DHT22;30858;51.108;8.068;2022-10-31T11:13:55;20.30;99.90
45096;DHT22;30858;51.108;8.068;2022-10-31T11:16:40;20.40;99.90
45096;DHT22;30858;51.108;8.068;2022-10-31T11:21:40;20.20;99.90
45096;DHT22;30858;51.108;8.068;2022-10-31T11:26:34;20.00;99.90
45096;DHT22;30858;51.108;8.068;2022-10-31T11:29:01;19.80;99.90
45096;DHT22;30858;51.108;8.068;2022-10-31T11:31:31;19.70;99.90
45096;DHT22;30858;51.108;8.068;2022-10-31T11:34:00;19.70;99.90
45096;DHT22;30858;51.108;8.068;2022-10-31T11:36:30;19.70;99.90
45096;DHT22;30858;51.108;8.068;2022-10-31T11:38:56;19.60;99.90
45096;DHT22;30858;51.108;8.068;2022-10-31T11:41:41;19.50;99.90
45096;DHT22;30858;51.108;8.068;2022-10-31T11:44:16;19.70;99.90
45096;DHT22;30858;51.108;8.068;2022-10-31T11:46:48;19.70;99.90
45096;DHT22;30858;51.108;8.068;2022-10-31T11:49:37;19.50;99.90
45096;DHT22;30858;51.108;8.068;2022-10-31T11:52:23;19.50;99.90
45096;DHT22;30858;51.108;8.068;2022-10-31T11:54:55;19.40;99.90
45096;DHT22;30858;51.108;8.068;2022-10-31T12:05:42;19.60;99.90
45096;DHT22;30858;51.108;8.068;2022-10-31T12:08:11;19.70;99.90
45096;DHT22;30858;51.108;8.068;2022-10-31T12:10:47;19.90;99.90
45096;DHT22;30858;51.108;8.068;2022-10-31T12:13:30;20.10;99.90
45096;DHT22;30858;51.108;8.068;2022-10-31T12:16:20;20.00;99.90
45096;DHT22;30858;51.108;8.068;2022-10-31T12:19:00;20.50;99.90
45096;DHT22;30858;51.108;8.068;2022-10-31T12:21:44;20.60;99.90
45096;DHT22;30858;51.108;8.068;2022-10-31T12:24:29;20.60;99.90
45096;DHT22;30858;51.108;8.068;2022-10-31T12:27:37;20.60;99.90
45096;DHT22;30858;51.108;8.068;2022-10-31T12:30:23;20.40;99.90
45096;DHT22;30858;51.108;8.068;2022-10-31T12:36:04;21.10;99.90
45096;DHT22;30858;51.108;8.068;2022-10-31T12:41:44;22.00;99.90
45096;DHT22;30858;51.108;8.068;2022-10-31T12:47:28;22.30;99.90
45096;DHT22;30858;51.108;8.068;2022-10-31T12:50:31;22.20;99.90
45096;DHT22;30858;51.108;8.068;2022-10-31T12:58:35;22.40;99.90
45096;DHT22;30858;51.108;8.068;2022-10-31T13:01:26;22.40;99.90
45096;DHT22;30858;51.108;8.068;2022-10-31T13:04:01;22.30;99.90
45096;DHT22;30858;51.108;8.068;2022-10-31T13:06:34;22.70;99.90
45096;DHT22;30858;51.108;8.068;2022-10-31T13:09:05;23.00;99.90
45096;DHT22;30858;51.108;8.068;2022-10-31T13:11:35;23.10;99.90
45096;DHT22;30858;51.108;8.068;2022-10-31T13:14:10;22.30;99.90
45096;DHT22;30858;51.108;8.068;2022-10-31T13:16:40;21.90;99.90
45096;DHT22;30858;51.108;8.068;2022-10-31T13:19:22;21.90;99.90
45096;DHT22;30858;51.108;8.068;2022-10-31T13:22:16;21.50;99.90
45096;DHT22;30858;51.108;8.068;2022-10-31T13:27:24;21.60;99.90
45096;DHT22;30858;51.108;8.068;2022-10-31T13:30:14;21.50;99.90
45096;DHT22;30858;51.108;8.068;2022-10-31T13:35:36;21.40;99.90
45096;DHT22;30858;51.108;8.068;2022-10-31T13:38:30;21.40;99.90
45096;DHT22;30858;51.108;8.068;2022-10-31T13:46:33;21.20;99.90
45096;DHT22;30858;51.108;8.068;2022-10-31T13:48:59;20.70;99.90
45096;DHT22;30858;51.108;8.068;2022-10-31T13:51:29;20.60;99.90
45096;DHT22;30858;51.108;8.068;2022-10-31T13:56:31;20.60;99.90
45096;DHT22;30858;51.108;8.068;2022-10-31T13:59:15;20.60;99.90
45096;DHT22;30858;51.108;8.068;2022-10-31T14:01:53;20.60;99.90
45096;DHT22;30858;51.108;8.068;2022-10-31T14:04:22;20.50;99.90
45096;DHT22;30858;51.108;8.068;2022-10-31T14:11:51;20.00;99.90
45096;DHT22;30858;51.108;8.068;2022-10-31T14:14:20;19.90;99.90
45096;DHT22;30858;51.108;8.068;2022-10-31T14:16:53;19.80;99.90
45096;DHT22;30858;51.108;8.068;2022-10-31T14:19:20;19.40;99.90
45096;DHT22;30858;51.108;8.068;2022-10-31T14:21:47;19.40;99.90
45096;DHT22;30858;51.108;8.068;2022-10-31T14:29:23;19.60;99.90
45096;DHT22;30858;51.108;8.068;2022-10-31T14:34:42;19.70;99.90
45096;DHT22;30858;51.108;8.068;2022-10-31T14:40:26;19.70;99.90
45096;DHT22;30858;51.108;8.068;2022-10-31T14:45:46;19.70;99.90
45096;DHT22;30858;51.108;8.068;2022-10-31T14:51:02;19.60;99.90
45096;DHT22;30858;51.108;8.068;2022-10-31T14:53:40;19.20;99.90
45096;DHT22;30858;51.108;8.068;2022-10-31T14:56:10;19.10;99.90
45096;DHT22;30858;51.108;8.068;2022-10-31T14:58:44;19.10;99.90
45096;DHT22;30858;51.108;8.068;2022-10-31T15:01:37;19.00;99.90
45096;DHT22;30858;51.108;8.068;2022-10-31T15:04:18;19.00;99.90
45096;DHT22;30858;51.108;8.068;2022-10-31T15:07:21;18.90;99.90
45096;DHT22;30858;51.108;8.068;2022-10-31T15:10:05;18.60;99.90
45096;DHT22;30858;51.108;8.068;2022-10-31T15:12:34;18.60;99.90
45096;DHT22;30858;51.108;8.068;2022-10-31T15:15:14;18.60;99.90
45096;DHT22;30858;51.108;8.068;2022-10-31T15:17:45;18.50;99.90
45096;DHT22;30858;51.108;8.068;2022-10-31T15:20:19;18.50;99.90
45096;DHT22;30858;51.108;8.068;2022-10-31T15:22:46;18.40;99.90
45096;DHT22;30858;51.108;8.068;2022-10-31T15:25:23;18.20;99.90
45096;DHT22;30858;51.108;8.068;2022-10-31T15:27:50;18.10;99.90
45096;DHT22;30858;51.108;8.068;2022-10-31T15:32:46;17.90;99.90
45096;DHT22;30858;51.108;8.068;2022-10-31T15:37:48;17.90;99.90
45096;DHT22;30858;51.108;8.068;2022-10-31T15:40:16;17.80;99.90
45096;DHT22;30858;51.108;8.068;2022-10-31T15:42:42;17.70;99.90
45096;DHT22;30858;51.108;8.068;2022-10-31T15:47:35;17.70;99.90
45096;DHT22;30858;51.108;8.068;2022-10-31T15:50:02;17.60;99.90
45096;DHT22;30858;51.108;8.068;2022-10-31T15:52:30;17.60;99.90
45096;DHT22;30858;51.108;8.068;2022-10-31T15:55:00;17.50;99.90
45096;DHT22;30858;51.108;8.068;2022-10-31T15:57:26;17.60;99.90
45096;DHT22;30858;51.108;8.068;2022-10-31T15:59:52;17.50;99.90
45096;DHT22;30858;51.108;8.068;2022-10-31T16:02:26;17.50;99.90
45096;DHT22;30858;51.108;8.068;2022-10-31T16:04:58;17.40;99.90
45096;DHT22;30858;51.108;8.068;2022-10-31T16:07:24;17.30;99.90
45096;DHT22;30858;51.108;8.068;2022-10-31T16:12:19;17.20;99.90
45096;DHT22;30858;51.108;8.068;2022-10-31T16:14:45;17.10;99.90
45096;DHT22;30858;51.108;8.068;2022-10-31T16:17:13;17.00;99.90
45096;DHT22;30858;51.108;8.068;2022-10-31T16:20:00;16.90;99.90
45096;DHT22;30858;51.108;8.068;2022-10-31T16:22:31;16.80;99.90
45096;DHT22;30858;51.108;8.068;2022-10-31T16:25:04;16.70;99.90
45096;DHT22;30858;51.108;8.068;2022-10-31T16:27:34;16.70;99.90
45096;DHT22;30858;51.108;8.068;2022-10-31T16:30:02;16.60;99.90
45096;DHT22;30858;51.108;8.068;2022-10-31T16:32:52;16.50;99.90
45096;DHT22;30858;51.108;8.068;2022-10-31T16:35:23;16.40;99.90
45096;DHT22;30858;51.108;8.068;2022-10-31T16:37:50;16.30;99.90
45096;DHT22;30858;51.108;8.068;2022-10-31T16:40:16;16.20;99.90
45096;DHT22;30858;51.108;8.068;2022-10-31T16:42:43;16.10;99.90
45096;DHT22;30858;51.108;8.068;2022-10-31T16:45:18;16.10;99.90
45096;DHT22;30858;51.108;8.068;2022-10-31T16:47:44;15.90;99.90
45096;DHT22;30858;51.108;8.068;2022-10-31T16:50:25;15.80;99.90
45096;DHT22;30858;51.108;8.068;2022-10-31T16:52:51;15.90;99.90
45096;DHT22;30858;51.108;8.068;2022-10-31T16:55:18;15.90;99.90
45096;DHT22;30858;51.108;8.068;2022-10-31T16:57:53;15.90;99.90
45096;DHT22;30858;51.108;8.068;2022-10-31T17:00:25;15.90;99.90
45096;DHT22;30858;51.108;8.068;2022-10-31T17:02:53;15.90;99.90
45096;DHT22;30858;51.108;8.068;2022-10-31T17:05:20;15.80;99.90
45096;DHT22;30858;51.108;8.068;2022-10-31T17:07:47;15.70;99.90
45096;DHT22;30858;51.108;8.068;2022-10-31T17:10:14;15.70;99.90
45096;DHT22;30858;51.108;8.068;2022-10-31T17:12:44;15.60;99.90
45096;DHT22;30858;51.108;8.068;2022-10-31T17:15:15;15.60;99.90
45096;DHT22;30858;51.108;8.068;2022-10-31T17:17:40;15.50;99.90
45096;DHT22;30858;51.108;8.068;2022-10-31T17:20:35;15.40;99.90
45096;DHT22;30858;51.108;8.068;2022-10-31T17:23:01;15.30;99.90
45096;DHT22;30858;51.108;8.068;2022-10-31T17:25:29;15.30;99.90
45096;DHT22;30858;51.108;8.068;2022-10-31T17:27:56;15.10;99.90
45096;DHT22;30858;51.108;8.068;2022-10-31T17:30:22;14.80;99.90
45096;DHT22;30858;51.108;8.068;2022-10-31T17:32:48;14.70;99.90
45096;DHT22;30858;51.108;8.068;2022-10-31T17:35:14;14.80;99.90
45096;DHT22;30858;51.108;8.068;2022-10-31T17:37:41;14.70;99.90
45096;DHT22;30858;51.108;8.068;2022-10-31T17:40:11;14.50;99.90
45096;DHT22;30858;51.108;8.068;2022-10-31T17:42:37;14.30;99.90
45096;DHT22;30858;51.108;8.068;2022-10-31T17:45:04;14.10;99.90
45096;DHT22;30858;51.108;8.068;2022-10-31T17:47:29;14.00;99.90
45096;DHT22;30858;51.108;8.068;2022-10-31T17:49:55;13.90;99.90
45096;DHT22;30858;51.108;8.068;2022-10-31T17:52:21;13.70;99.90
45096;DHT22;30858;51.108;8.068;2022-10-31T17:54:46;13.60;99.90
45096;DHT22;30858;51.108;8.068;2022-10-31T17:57:12;13.70;99.90
45096;DHT22;30858;51.108;8.068;2022-10-31T17:59:37;13.70;99.90
45096;DHT22;30858;51.108;8.068;2022-10-31T18:02:03;13.60;99.90